Duluth, MN (55701)

6:33 AM CDT on August 31, 2015 (GMT -0500)
Chester Park WX | | Change Station
CLOSE
Current Station
Personal Weather Station
Location: Duluth, MN
Elevation: 1040 ft
Nearby Weather Stations
Active Advisory: Special Statement

Elev 1040 ft 46.81 °N, 92.08 °W | Updated 3 minutes ago

Partly Cloudy
Partly Cloudy
64.7 °F
Feels Like 64.7 °F
N
2.0
Wind Variable Wind from SSW
Gusts 2.0 mph

Today
High -- | Low -- °F
--% Chance of Precip.
Yesterday
High -- | Low -- °F
Precip. -- in
6:26 AM 7:50 PM
Waning Gibbous, 96% visible
Pressure 29.87 in
Visibility 5.0 miles
Clouds Mostly Cloudy 500 ft
Dew Point 64 °F
Humidity 97%
Rainfall 0.00 in
Snow Depth Not available.
UV 0 out of 12
Pollen 10.10 out of 12
Air Quality Not available.
Flu Activity Not available.
METAR KDLH 311055Z 20010KT 5SM BR BKN005 18/17 A2988 RMK AO2 SLP115 T01780167
Pressure 29.87 in
Visibility 5.0 miles
Clouds Mostly Cloudy 500 ft
Dew Point 64 °F
Humidity 97%
Rainfall 0.00 in
Snow Depth Not available.
UV 0 out of 12
Pollen 10.10 out of 12
Air Quality Not available.
Flu Activity Not available.
METAR KDLH 311055Z 20010KT 5SM BR BKN005 18/17 A2988 RMK AO2 SLP115 T01780167

10-Day Weather Forecast

×

Almanac

Astronomy

Aug. 31, 2015 Rise Set
Actual Time
Civil Twilight
Nautical Twilight
Astronomical Twilight
Moon
Length of Visible Light
Length of Day
Tomorrow will be .
, % of the Moon is Illuminated

Today's Extremes

State Highs State Lows

Community

WunderPhotos

Upload Photos

1,851,219 photos uploaded!

WunderBlogs® & News

Nearby

Air Quality

  Air Quality AQ Index Pollutant
Not available.

Snow Depth

Station Depth Elevation

Earthquake Activity

City Distance Mag. Time & Date
Minimum magnitude displayed is 2.5.

Coastal Water Temperatures

Place Temperature

Stations

Nearby Weather Stations

Station Location Temp. Windchill Dew Point Humidity Wind Precip. Elev Updated Type
                   
Special Statement
Statement as of 6:14 AM CDT on August 31, 2015

... Patchy dense fog this morning...

Patchy dense fog will be possible this morning... but should lift
between 800 am and 930 am. Visibilities of a quarter to half mile
have been reported in Superior... Eveleth... Grand Marais... and
Phillips. The fog may impact travel... slow down and use caution.



614 am CDT Mon Aug 31 2015

... Patchy dense fog this morning...

Patchy dense fog will be possible this morning... but should lift
between 800 am and 930 am. Visibilities of a quarter to half mile
have been reported in Superior... Eveleth... Grand Marais... and
Phillips. The fog may impact travel... slow down and use caution.